Current Weather

Coolidge Muni

Coolidge Muni, Arizona (KP08)

Report from: Monday, August 15, 2022 6:15 PM MST
Current time: Monday, August 15, 2022 6:31 PM MST

Nearby weather
Weather history
Weather forecast

Temperature36.0°C (96.8°F)
Heat index35.9°C (96.6°F)
Dew point15.0°C (59.0°F)
Winds 6 kts (3.1 m/s, 6.9 mph) West (270°)
Visibility10 mi. (16.1 km)
Clouds Sky clear
Altimeter29.79 in.Hg (1009 mB)
Relative humidity29 %
Density altitude2,763 ft. (842 m)
Remarks Fully automated report
Automated weather observing station with precipitation discriminator
Lightning observed
Distant northeast
Flight conditions Visual Meteorological Conditions
Raw dataKP08 160115Z AUTO 27006KT 10SM CLR 36/15 A2979 RMK AO2 LTG DSNT NE
An error has occurred. This application may no longer respond until reloaded. Reload 🗙